Numa, Colorado
Current Conditions -  °F | °C
As of 2:53 AM on Saturday 29 Nov 2014 (Local Time) from KLHX Reporting Station
Clear Clear  
Wind Chill: 39°   Ceiling: Unl
Heat Index: 46°   Visibility: 10mi
Dew Point: 16°   Wind: 16mph
Humidity: 30%   Direction: 260°W
Pressure: 29.76"   Gusts: NA
Location:  38.363°N, 103.799°W
Report Text: KLHX 290953Z AUTO 26014KT 10SM CLR 08/M09 A2976 RMK AO2 SLP036 T00781089
Loading
Personal Weather Stations






























Interactive Weather Map New forecast layout! Learn more

10-Day Weather Forecast

Advertisements
Track Severe Weather on mobile